createdAt,value
2017-10-01T00:01:27.452Z,12.93
2017-10-01T00:03:54.899Z,12.93
2017-10-01T00:06:22.374Z,13.03
2017-10-01T00:08:49.824Z,12.92
2017-10-01T00:11:17.289Z,13.37
2017-10-01T00:13:44.738Z,13.14
2017-10-01T00:16:12.207Z,12.88
2017-10-01T00:18:39.675Z,12.90
2017-10-01T00:21:07.163Z,13.10
2017-10-01T00:23:34.626Z,12.68
2017-10-01T00:26:02.102Z,12.48
2017-10-01T00:28:29.559Z,12.68
2017-10-01T00:30:57.031Z,12.57
2017-10-01T00:33:24.527Z,12.45
2017-10-01T00:35:51.995Z,12.41
2017-10-01T00:38:19.443Z,12.89
2017-10-01T00:40:46.891Z,12.37
2017-10-01T00:43:14.383Z,12.27
2017-10-01T00:45:41.836Z,12.09
2017-10-01T00:48:09.363Z,12.04
2017-10-01T00:50:36.936Z,11.88
2017-10-01T00:53:04.401Z,11.71
2017-10-01T00:55:31.947Z,11.70
2017-10-01T00:57:59.410Z,11.69
2017-10-01T01:00:26.952Z,11.58
2017-10-01T01:02:54.418Z,11.47
2017-10-01T01:05:21.870Z,11.42
2017-10-01T01:07:49.344Z,11.33
2017-10-01T01:10:16.786Z,11.16
2017-10-01T01:12:44.235Z,11.17
2017-10-01T01:15:11.701Z,11.06
2017-10-01T01:17:39.147Z,11.04
2017-10-01T01:20:07.356Z,10.87
2017-10-01T01:22:34.811Z,10.94
2017-10-01T01:25:02.270Z,10.82
2017-10-01T01:27:29.720Z,10.84
2017-10-01T01:29:57.187Z,10.76
2017-10-01T01:32:24.639Z,10.52
2017-10-01T01:34:52.167Z,10.51
2017-10-01T01:37:19.631Z,10.42
2017-10-01T01:39:47.100Z,10.32
2017-10-01T01:42:14.543Z,10.19
2017-10-01T01:44:42.024Z,10.03
2017-10-01T01:47:09.473Z,10.14
2017-10-01T01:49:36.910Z,10.35
2017-10-01T01:52:04.374Z,10.26
2017-10-01T01:54:31.831Z,10.29
2017-10-01T01:56:59.318Z,10.36
2017-10-01T01:59:26.769Z,10.32
2017-10-01T02:01:54.246Z,10.32
2017-10-01T02:04:21.734Z,10.07
2017-10-01T02:06:49.319Z,9.87
2017-10-01T02:09:16.767Z,9.89
2017-10-01T02:11:44.239Z,9.80
2017-10-01T02:14:11.699Z,9.69
2017-10-01T02:16:39.229Z,9.52
2017-10-01T02:19:06.687Z,9.57
2017-10-01T02:21:34.160Z,9.44
2017-10-01T02:24:01.709Z,9.28
2017-10-01T02:26:29.170Z,9.34
2017-10-01T02:28:56.614Z,9.33
2017-10-01T02:31:24.063Z,9.22
2017-10-01T02:33:51.524Z,9.29
2017-10-01T02:36:18.974Z,9.27
2017-10-01T02:38:46.435Z,9.16
2017-10-01T02:41:13.880Z,9.11
2017-10-01T02:43:41.338Z,9.09
2017-10-01T02:46:08.787Z,9.06
2017-10-01T02:48:36.239Z,9.12
2017-10-01T02:51:03.681Z,9.05
2017-10-01T02:53:31.159Z,9.11
2017-10-01T02:55:58.631Z,9.23
2017-10-01T02:58:26.091Z,9.15
2017-10-01T03:00:53.544Z,9.03
2017-10-01T03:03:21.103Z,9.04
2017-10-01T03:05:48.537Z,8.90
2017-10-01T03:08:16.006Z,8.76
2017-10-01T03:10:43.445Z,8.70
2017-10-01T03:13:10.932Z,8.65
2017-10-01T03:15:38.493Z,8.77
2017-10-01T03:18:05.936Z,8.84
2017-10-01T03:20:33.519Z,8.90
2017-10-01T03:23:00.970Z,8.79
2017-10-01T03:25:28.431Z,8.94
2017-10-01T03:27:55.876Z,9.01
2017-10-01T03:30:23.436Z,9.06
2017-10-01T03:32:50.994Z,9.20
2017-10-01T03:35:18.463Z,9.26
2017-10-01T03:37:45.907Z,9.20
2017-10-01T03:40:13.466Z,8.99
2017-10-01T03:42:41.034Z,8.58
2017-10-01T03:45:08.516Z,8.77
2017-10-01T03:47:35.979Z,8.89
2017-10-01T03:50:03.422Z,8.97
2017-10-01T03:52:30.954Z,8.88
2017-10-01T03:54:58.399Z,9.03
2017-10-01T03:57:35.799Z,9.08
2017-10-01T04:00:03.252Z,9.19
2017-10-01T04:02:30.718Z,9.16
2017-10-01T04:04:58.163Z,9.13
2017-10-01T04:07:25.623Z,9.09
2017-10-01T04:09:53.099Z,9.11
2017-10-01T04:12:20.641Z,9.04
2017-10-01T04:14:48.083Z,9.09
2017-10-01T04:17:15.553Z,9.17
2017-10-01T04:19:42.991Z,9.24
2017-10-01T04:22:10.465Z,9.29
2017-10-01T04:24:38.027Z,9.26
2017-10-01T04:27:05.481Z,9.35
2017-10-01T04:29:32.976Z,9.55
2017-10-01T04:32:00.431Z,9.59
2017-10-01T04:34:28.014Z,9.56
2017-10-01T04:36:55.460Z,9.52
2017-10-01T04:39:22.931Z,9.59
2017-10-01T04:41:50.373Z,9.59
2017-10-01T04:44:17.843Z,9.76
2017-10-01T04:46:45.337Z,9.97
2017-10-01T04:49:12.808Z,10.44
2017-10-01T04:51:40.317Z,10.73
2017-10-01T04:54:07.805Z,10.76
2017-10-01T04:56:35.307Z,10.54
2017-10-01T04:59:02.845Z,10.19
2017-10-01T05:01:30.383Z,10.50
2017-10-01T05:03:57.842Z,10.76
2017-10-01T05:06:25.296Z,10.96
2017-10-01T05:08:52.852Z,10.76
2017-10-01T05:11:20.303Z,10.52
2017-10-01T05:13:47.769Z,10.41
2017-10-01T05:16:15.292Z,10.77
2017-10-01T05:18:42.743Z,10.81
2017-10-01T05:21:10.230Z,10.91
2017-10-01T05:23:37.676Z,10.98
2017-10-01T05:26:05.155Z,10.79
2017-10-01T05:28:32.613Z,10.86
2017-10-01T05:31:00.087Z,10.91
2017-10-01T05:33:27.543Z,10.77
2017-10-01T05:35:55.033Z,10.80
2017-10-01T05:38:22.555Z,10.72
2017-10-01T05:40:49.999Z,10.36
2017-10-01T05:43:17.552Z,10.31
2017-10-01T05:45:44.995Z,10.20
2017-10-01T05:48:12.467Z,10.17
2017-10-01T05:50:39.906Z,10.45
2017-10-01T05:53:07.391Z,10.07
2017-10-01T05:55:34.933Z,10.05
2017-10-01T05:58:02.395Z,10.08
2017-10-01T06:00:29.844Z,10.23
2017-10-01T06:02:57.320Z,10.21
2017-10-01T06:05:24.774Z,10.21
2017-10-01T06:07:52.338Z,10.12
2017-10-01T06:10:19.791Z,10.17
2017-10-01T06:12:47.351Z,10.24
2017-10-01T06:15:14.811Z,10.18
2017-10-01T06:17:42.266Z,10.28
2017-10-01T06:20:09.711Z,10.29
2017-10-01T06:22:37.211Z,10.66
2017-10-01T06:25:04.677Z,10.56
2017-10-01T06:27:32.179Z,10.51
2017-10-01T06:29:59.618Z,10.39
2017-10-01T06:32:27.077Z,10.54
2017-10-01T06:34:54.553Z,10.45
2017-10-01T06:37:22.005Z,10.43
2017-10-01T06:39:49.599Z,10.56
2017-10-01T06:42:17.047Z,10.59
2017-10-01T06:44:44.510Z,10.18
2017-10-01T06:47:11.967Z,10.30
2017-10-01T06:49:39.442Z,10.34
2017-10-01T06:52:06.898Z,10.45
2017-10-01T06:54:34.405Z,10.56
2017-10-01T06:57:01.851Z,10.41
2017-10-01T06:59:29.318Z,10.41
2017-10-01T07:01:56.758Z,10.35
2017-10-01T07:04:24.336Z,10.79
2017-10-01T07:06:51.782Z,10.93
2017-10-01T07:09:19.300Z,10.86
2017-10-01T07:11:46.788Z,11.00
2017-10-01T07:14:14.272Z,11.39
2017-10-01T07:16:41.772Z,11.14
2017-10-01T07:19:09.226Z,11.11
2017-10-01T07:21:36.692Z,10.99
2017-10-01T07:24:04.194Z,10.97
2017-10-01T07:26:31.753Z,10.91
2017-10-01T07:28:59.194Z,10.86
2017-10-01T07:31:26.778Z,11.08
2017-10-01T07:33:54.327Z,10.92
2017-10-01T07:36:21.874Z,11.02
2017-10-01T07:38:49.337Z,11.03
2017-10-01T07:41:16.803Z,11.35
2017-10-01T07:43:44.243Z,11.20
2017-10-01T07:46:11.703Z,11.36
2017-10-01T07:48:39.146Z,11.61
2017-10-01T07:51:06.617Z,11.40
2017-10-01T07:53:34.156Z,11.29
2017-10-01T07:56:01.740Z,11.18
2017-10-01T07:58:29.327Z,11.12
2017-10-01T08:00:56.856Z,11.08
2017-10-01T08:03:24.304Z,10.98
2017-10-01T08:05:51.772Z,11.22
2017-10-01T08:08:19.335Z,11.20
2017-10-01T08:10:47.208Z,11.28
2017-10-01T08:13:14.655Z,11.72
2017-10-01T08:15:42.222Z,11.94
2017-10-01T08:18:09.698Z,11.92
2017-10-01T08:20:37.230Z,11.80
2017-10-01T08:23:04.711Z,11.82
2017-10-01T08:25:32.171Z,11.82
2017-10-01T08:27:59.660Z,11.91
2017-10-01T08:30:27.107Z,12.19
2017-10-01T08:32:54.566Z,12.30
2017-10-01T08:35:22.018Z,12.02
2017-10-01T08:37:49.494Z,11.67
2017-10-01T08:40:16.980Z,11.69
2017-10-01T08:42:44.462Z,11.66
2017-10-01T08:45:11.987Z,11.77
2017-10-01T08:47:39.464Z,11.49
2017-10-01T08:50:07.652Z,11.58
2017-10-01T08:52:35.151Z,11.73
2017-10-01T08:55:02.604Z,11.66
2017-10-01T08:57:30.099Z,11.51
2017-10-01T08:59:57.551Z,11.65
2017-10-01T09:02:25.114Z,11.73
2017-10-01T09:04:52.582Z,11.83
2017-10-01T09:07:20.055Z,11.90
2017-10-01T09:09:47.585Z,12.06
2017-10-01T09:12:15.066Z,12.21
2017-10-01T09:14:42.624Z,12.56
2017-10-01T09:17:10.112Z,12.52
2017-10-01T09:19:37.591Z,12.72
2017-10-01T09:22:05.067Z,13.02
2017-10-01T09:24:32.583Z,12.92
2017-10-01T09:27:00.071Z,12.78
2017-10-01T09:29:27.534Z,12.91
2017-10-01T09:31:54.987Z,13.37
2017-10-01T09:34:22.558Z,13.34
2017-10-01T09:36:50.117Z,13.74
2017-10-01T09:39:17.586Z,13.40
2017-10-01T09:41:45.039Z,13.43
2017-10-01T09:44:12.547Z,13.59
2017-10-01T09:46:40.007Z,13.31
2017-10-01T09:49:07.480Z,13.65
2017-10-01T09:51:34.935Z,14.40
2017-10-01T09:54:02.409Z,14.55
2017-10-01T09:56:29.869Z,14.76
2017-10-01T09:58:57.340Z,14.89
2017-10-01T10:01:24.798Z,14.75
2017-10-01T10:03:52.275Z,14.56
2017-10-01T10:06:19.737Z,14.74
2017-10-01T10:08:47.207Z,14.79
2017-10-01T10:11:14.661Z,15.05
2017-10-01T10:13:42.168Z,15.29
2017-10-01T10:16:09.615Z,15.58
2017-10-01T10:18:37.092Z,15.21
2017-10-01T10:21:04.655Z,15.34
2017-10-01T10:23:32.139Z,15.19
2017-10-01T10:25:59.655Z,15.30
2017-10-01T10:28:27.135Z,15.62
2017-10-01T10:30:54.620Z,15.38
2017-10-01T10:33:22.126Z,15.25
2017-10-01T10:35:49.566Z,15.53
2017-10-01T10:38:17.070Z,15.74
2017-10-01T10:40:44.517Z,15.12
2017-10-01T10:43:11.995Z,15.03
2017-10-01T10:45:39.443Z,15.49
2017-10-01T10:48:06.920Z,15.20
2017-10-01T10:50:34.379Z,15.88
2017-10-01T10:53:01.822Z,16.14
2017-10-01T10:55:29.296Z,16.27
2017-10-01T10:57:56.745Z,16.36
2017-10-01T11:00:24.215Z,15.69
2017-10-01T11:02:51.667Z,15.85
2017-10-01T11:05:19.166Z,16.24
2017-10-01T11:07:46.724Z,16.26
2017-10-01T11:10:14.292Z,16.18
2017-10-01T11:12:41.749Z,16.04
2017-10-01T11:15:09.222Z,15.86
2017-10-01T11:17:36.682Z,15.60
2017-10-01T11:20:04.166Z,15.78
2017-10-01T11:22:31.615Z,15.59
2017-10-01T11:24:59.087Z,15.45
2017-10-01T11:27:26.539Z,15.85
2017-10-01T11:29:54.023Z,16.06
2017-10-01T11:32:21.481Z,16.26
2017-10-01T11:34:49.056Z,16.34
2017-10-01T11:37:16.510Z,16.20
2017-10-01T11:39:43.983Z,16.08
2017-10-01T11:42:11.449Z,16.21
2017-10-01T11:44:38.954Z,16.23
2017-10-01T11:47:06.407Z,16.14
2017-10-01T11:49:33.894Z,16.32
2017-10-01T11:52:01.359Z,16.81
2017-10-01T11:54:28.847Z,16.85
2017-10-01T11:56:56.312Z,16.18
2017-10-01T11:59:23.792Z,16.30
2017-10-01T12:01:51.238Z,16.32
2017-10-01T12:04:18.687Z,15.85
2017-10-01T12:06:46.164Z,16.59
2017-10-01T12:09:13.620Z,16.42
2017-10-01T12:11:41.097Z,16.23
2017-10-01T12:14:08.547Z,16.87
2017-10-01T12:16:36.035Z,16.84
2017-10-01T12:19:03.483Z,16.54
2017-10-01T12:21:30.942Z,16.68
2017-10-01T12:23:58.497Z,17.06
2017-10-01T12:26:25.975Z,16.90
2017-10-01T12:28:53.434Z,16.91
2017-10-01T12:31:20.902Z,16.55
2017-10-01T12:33:48.347Z,17.03
2017-10-01T12:36:15.821Z,17.34
2017-10-01T12:38:43.280Z,17.25
2017-10-01T12:41:10.747Z,17.03
2017-10-01T12:43:38.190Z,17.24
2017-10-01T12:46:05.680Z,17.03
2017-10-01T12:48:33.154Z,17.02
2017-10-01T12:51:00.628Z,16.94
2017-10-01T12:53:28.096Z,17.32
2017-10-01T12:55:55.584Z,17.18
2017-10-01T12:58:23.035Z,17.27
2017-10-01T13:00:55.458Z,17.06
2017-10-01T13:03:22.922Z,17.12
2017-10-01T13:05:50.463Z,16.90
2017-10-01T13:08:17.914Z,17.08
2017-10-01T13:10:45.367Z,17.38
2017-10-01T13:13:12.851Z,17.07
2017-10-01T13:15:40.306Z,17.26
2017-10-01T13:18:07.860Z,17.18
2017-10-01T13:20:35.412Z,17.14
2017-10-01T13:23:02.874Z,16.93
2017-10-01T13:25:30.331Z,16.87
2017-10-01T13:27:57.804Z,16.82
2017-10-01T13:30:25.281Z,16.66
2017-10-01T13:32:52.808Z,17.11
2017-10-01T13:35:20.256Z,17.57
2017-10-01T13:37:47.727Z,17.82
2017-10-01T13:40:15.195Z,17.85
2017-10-01T13:42:42.725Z,17.95
2017-10-01T13:45:10.162Z,17.85
2017-10-01T13:47:37.632Z,17.67
2017-10-01T13:50:05.314Z,17.69
2017-10-01T13:52:32.784Z,17.97
2017-10-01T13:55:00.330Z,17.87
2017-10-01T13:57:27.800Z,18.06
2017-10-01T13:59:55.323Z,18.09
2017-10-01T14:02:22.783Z,17.86
2017-10-01T14:04:50.222Z,17.81
2017-10-01T14:07:17.686Z,17.77
2017-10-01T14:09:45.147Z,17.68
2017-10-01T14:12:12.716Z,17.82
2017-10-01T14:14:40.167Z,17.94
2017-10-01T14:17:07.641Z,18.13
2017-10-01T14:19:35.186Z,17.84
2017-10-01T14:22:02.739Z,17.83
2017-10-01T14:24:30.215Z,17.72
2017-10-01T14:26:57.679Z,17.60
2017-10-01T14:29:25.169Z,17.91
2017-10-01T14:31:52.666Z,17.47
2017-10-01T14:34:20.123Z,17.26
2017-10-01T14:36:47.646Z,17.45
2017-10-01T14:39:15.146Z,17.58
2017-10-01T14:41:42.597Z,17.67
2017-10-01T14:44:10.054Z,18.13
2017-10-01T14:46:37.495Z,18.06
2017-10-01T14:49:04.969Z,17.95
2017-10-01T14:51:32.419Z,17.74
2017-10-01T14:53:59.897Z,17.96
2017-10-01T14:56:27.352Z,17.77
2017-10-01T14:58:54.824Z,17.74
2017-10-01T15:01:22.291Z,18.12
2017-10-01T15:03:49.775Z,18.34
2017-10-01T15:06:17.231Z,17.97
2017-10-01T15:08:44.695Z,18.13
2017-10-01T15:11:12.145Z,18.02
2017-10-01T15:13:39.648Z,18.03
2017-10-01T15:16:07.202Z,18.08
2017-10-01T15:18:34.682Z,17.98
2017-10-01T15:21:02.129Z,17.69
2017-10-01T15:23:29.590Z,17.76
2017-10-01T15:25:57.036Z,17.90
2017-10-01T15:28:24.507Z,17.66
2017-10-01T15:30:51.954Z,17.72
2017-10-01T15:33:19.499Z,17.65
2017-10-01T15:35:46.972Z,17.78
2017-10-01T15:38:14.439Z,17.94
2017-10-01T15:40:41.916Z,17.91
2017-10-01T15:43:09.419Z,17.61
2017-10-01T15:45:36.857Z,17.65
2017-10-01T15:48:04.327Z,17.60
2017-10-01T15:50:31.793Z,17.79
2017-10-01T15:52:59.263Z,17.89
2017-10-01T15:55:26.832Z,17.88
2017-10-01T15:57:54.298Z,17.70
2017-10-01T16:00:21.747Z,17.79
2017-10-01T16:02:49.952Z,17.62
2017-10-01T16:05:18.135Z,17.24
2017-10-01T16:07:45.887Z,17.28
2017-10-01T16:10:13.855Z,17.12
2017-10-01T16:12:41.621Z,17.01
2017-10-01T16:15:09.567Z,16.99
2017-10-01T16:17:37.335Z,17.12
2017-10-01T16:20:05.530Z,16.98
2017-10-01T16:22:33.389Z,16.96
2017-10-01T16:25:00.910Z,16.93
2017-10-01T16:27:28.354Z,16.96
2017-10-01T16:29:55.831Z,16.81
2017-10-01T16:32:23.275Z,16.68
2017-10-01T16:34:50.750Z,16.55
2017-10-01T16:37:18.203Z,16.65
2017-10-01T16:39:45.656Z,16.71
2017-10-01T16:42:16.370Z,16.62
2017-10-01T16:44:43.814Z,16.44
2017-10-01T16:47:11.305Z,16.34
2017-10-01T16:49:38.862Z,16.27
2017-10-01T16:52:06.410Z,16.11
2017-10-01T16:54:33.904Z,16.06
2017-10-01T16:57:01.408Z,15.96
2017-10-01T16:59:28.850Z,15.90
2017-10-01T17:01:56.428Z,15.93
2017-10-01T17:04:23.882Z,15.65
2017-10-01T17:06:51.391Z,15.42
2017-10-01T17:09:18.844Z,15.20
2017-10-01T17:11:46.314Z,15.29
2017-10-01T17:14:13.767Z,15.31
2017-10-01T17:16:41.232Z,15.08
2017-10-01T17:19:08.684Z,14.84
2017-10-01T17:21:36.150Z,14.66
2017-10-01T17:24:03.648Z,14.45
2017-10-01T17:26:31.119Z,14.41
2017-10-01T17:28:58.566Z,14.25
2017-10-01T17:31:26.115Z,14.36
2017-10-01T17:33:53.576Z,14.61
2017-10-01T17:36:21.130Z,14.58
2017-10-01T17:38:48.602Z,14.29
2017-10-01T17:41:16.053Z,14.34
2017-10-01T17:43:43.525Z,14.45
2017-10-01T17:46:11.051Z,14.59
2017-10-01T17:48:38.513Z,14.64
2017-10-01T17:51:05.978Z,14.71
2017-10-01T17:53:33.447Z,14.40
2017-10-01T17:56:00.915Z,14.44
2017-10-01T17:58:28.924Z,14.54
2017-10-01T18:00:56.432Z,14.52
2017-10-01T18:03:23.963Z,14.43
2017-10-01T18:05:51.415Z,14.65
2017-10-01T18:08:18.888Z,14.48
2017-10-01T18:10:46.343Z,14.44
2017-10-01T18:13:13.811Z,14.43
2017-10-01T18:15:41.274Z,14.28
2017-10-01T18:18:08.805Z,14.31
2017-10-01T18:20:36.280Z,14.33
2017-10-01T18:23:03.743Z,14.29
2017-10-01T18:25:31.234Z,14.34
2017-10-01T18:27:58.689Z,14.28
2017-10-01T18:30:26.142Z,14.20
2017-10-01T18:32:54.563Z,14.14
2017-10-01T18:35:22.007Z,14.12
2017-10-01T18:37:49.475Z,14.15
2017-10-01T18:40:16.949Z,14.07
2017-10-01T18:42:44.426Z,14.03
2017-10-01T18:45:11.879Z,13.93
2017-10-01T18:47:39.370Z,14.02
2017-10-01T18:50:06.814Z,13.92
2017-10-01T18:52:34.265Z,13.95
2017-10-01T18:55:01.737Z,14.07
2017-10-01T18:57:29.183Z,14.02
2017-10-01T18:59:56.650Z,14.18
2017-10-01T19:02:24.107Z,14.00
2017-10-01T19:04:51.581Z,13.97
2017-10-01T19:07:19.067Z,13.94
2017-10-01T19:09:46.567Z,13.86
2017-10-01T19:12:14.023Z,13.83
2017-10-01T19:14:41.492Z,13.84
2017-10-01T19:17:09.448Z,13.88
2017-10-01T19:19:36.975Z,13.73
2017-10-01T19:22:04.424Z,13.71
2017-10-01T19:24:31.880Z,13.74
2017-10-01T19:26:59.423Z,13.85
2017-10-01T19:29:26.884Z,13.80
2017-10-01T19:31:54.439Z,13.73
2017-10-01T19:34:21.883Z,13.57
2017-10-01T19:36:49.356Z,13.35
2017-10-01T19:39:16.911Z,13.26
2017-10-01T19:41:44.395Z,13.46
2017-10-01T19:44:11.839Z,13.48
2017-10-01T19:46:39.327Z,13.28
2017-10-01T19:49:06.783Z,13.23
2017-10-01T19:51:34.304Z,13.20
2017-10-01T19:54:01.757Z,13.42
2017-10-01T19:56:29.222Z,13.29
2017-10-01T19:58:56.658Z,13.17
2017-10-01T20:01:24.155Z,13.15
2017-10-01T20:03:51.602Z,12.97
2017-10-01T20:06:19.146Z,13.08
2017-10-01T20:08:46.616Z,13.12
2017-10-01T20:11:14.156Z,13.13
2017-10-01T20:13:41.711Z,13.22
2017-10-01T20:16:09.157Z,13.23
2017-10-01T20:18:36.632Z,13.36
2017-10-01T20:21:04.215Z,13.49
2017-10-01T20:23:31.715Z,13.35
2017-10-01T20:25:59.194Z,13.40
2017-10-01T20:28:26.675Z,13.24
2017-10-01T20:30:54.123Z,13.27
2017-10-01T20:33:21.624Z,13.36
2017-10-01T20:35:49.066Z,13.23
2017-10-01T20:38:16.713Z,13.13
2017-10-01T20:40:44.163Z,13.31
2017-10-01T20:43:11.639Z,13.37
2017-10-01T20:45:39.081Z,13.38
2017-10-01T20:48:06.576Z,13.50
2017-10-01T20:50:34.027Z,13.40
2017-10-01T20:53:01.470Z,13.48
2017-10-01T20:55:28.994Z,13.41
2017-10-01T20:57:56.475Z,13.49
2017-10-01T21:00:23.959Z,13.57
2017-10-01T21:02:52.351Z,13.45
2017-10-01T21:05:19.813Z,13.47
2017-10-01T21:07:47.282Z,13.44
2017-10-01T21:10:14.762Z,13.57
2017-10-01T21:12:42.223Z,13.59
2017-10-01T21:15:09.761Z,13.57
2017-10-01T21:17:37.203Z,13.53
2017-10-01T21:20:04.679Z,13.49
2017-10-01T21:22:32.123Z,13.60
2017-10-01T21:24:59.586Z,13.63
2017-10-01T21:27:27.041Z,13.55
2017-10-01T21:29:54.629Z,13.53
2017-10-01T21:32:22.163Z,13.69
2017-10-01T21:34:49.719Z,13.64
2017-10-01T21:37:17.175Z,13.57
2017-10-01T21:39:44.654Z,13.64
2017-10-01T21:42:12.186Z,13.68
2017-10-01T21:44:39.647Z,13.63
2017-10-01T21:47:07.086Z,13.56
2017-10-01T21:49:34.667Z,13.51
2017-10-01T21:52:02.226Z,13.47
2017-10-01T21:54:29.691Z,13.48
2017-10-01T21:56:57.139Z,13.53
2017-10-01T21:59:24.587Z,13.44
2017-10-01T22:01:52.054Z,13.36
2017-10-01T22:04:19.494Z,13.22
2017-10-01T22:06:46.965Z,13.13
2017-10-01T22:09:14.420Z,13.18
2017-10-01T22:11:41.891Z,13.19
2017-10-01T22:14:09.353Z,13.21
2017-10-01T22:16:36.830Z,13.15
2017-10-01T22:19:04.294Z,13.12
2017-10-01T22:21:31.766Z,13.07
2017-10-01T22:23:59.227Z,13.13
2017-10-01T22:26:26.711Z,13.21
2017-10-01T22:28:54.178Z,13.16
2017-10-01T22:31:21.630Z,13.19
2017-10-01T22:33:49.191Z,13.11
2017-10-01T22:36:16.659Z,13.10
2017-10-01T22:38:44.141Z,13.12
2017-10-01T22:41:11.587Z,13.07
2017-10-01T22:43:39.072Z,13.08
2017-10-01T22:46:06.533Z,13.08
2017-10-01T22:48:34.012Z,13.16
2017-10-01T22:51:01.499Z,13.17
2017-10-01T22:53:28.971Z,13.16
2017-10-01T22:55:56.455Z,13.12
2017-10-01T22:58:23.935Z,13.08
2017-10-01T23:00:51.382Z,13.00
2017-10-01T23:03:18.832Z,12.90
2017-10-01T23:05:46.327Z,13.10
2017-10-01T23:08:13.799Z,13.09
2017-10-01T23:10:41.267Z,13.09
2017-10-01T23:13:08.715Z,13.16
2017-10-01T23:15:36.270Z,13.20
2017-10-01T23:18:03.723Z,13.27
2017-10-01T23:20:31.200Z,13.22
2017-10-01T23:22:58.641Z,13.10
2017-10-01T23:25:26.111Z,13.12
2017-10-01T23:27:53.554Z,13.08
2017-10-01T23:30:21.027Z,13.05
2017-10-01T23:32:48.486Z,12.97
2017-10-01T23:35:15.960Z,13.01
2017-10-01T23:37:43.398Z,13.05
2017-10-01T23:40:10.870Z,13.13
2017-10-01T23:42:38.324Z,13.21
2017-10-01T23:45:05.795Z,13.17
2017-10-01T23:47:33.250Z,13.10
2017-10-01T23:50:00.699Z,13.09
2017-10-01T23:52:28.166Z,12.99
2017-10-01T23:54:55.611Z,12.78
2017-10-01T23:57:23.105Z,12.57
2017-10-01T23:59:50.548Z,12.49
